sensor_id;sensor_type;location;lat;lon;timestamp;temperature;humidity
6407;DHT22;3236;51.022;6.818;2023-04-01T00:00:57;10.30;99.90
6407;DHT22;3236;51.022;6.818;2023-04-01T00:03:25;10.40;99.90
6407;DHT22;3236;51.022;6.818;2023-04-01T00:05:53;10.40;99.90
6407;DHT22;3236;51.022;6.818;2023-04-01T00:08:22;10.40;99.90
6407;DHT22;3236;51.022;6.818;2023-04-01T00:10:50;10.40;99.90
6407;DHT22;3236;51.022;6.818;2023-04-01T00:13:17;10.40;99.90
6407;DHT22;3236;51.022;6.818;2023-04-01T00:15:45;10.40;99.90
6407;DHT22;3236;51.022;6.818;2023-04-01T00:18:13;10.40;99.90
6407;DHT22;3236;51.022;6.818;2023-04-01T00:20:45;10.40;99.90
6407;DHT22;3236;51.022;6.818;2023-04-01T00:23:12;10.40;99.90
6407;DHT22;3236;51.022;6.818;2023-04-01T00:25:41;10.40;99.90
6407;DHT22;3236;51.022;6.818;2023-04-01T00:28:11;10.30;99.90
6407;DHT22;3236;51.022;6.818;2023-04-01T00:30:38;10.30;99.90
6407;DHT22;3236;51.022;6.818;2023-04-01T00:33:05;10.10;99.90
6407;DHT22;3236;51.022;6.818;2023-04-01T00:35:32;10.40;99.90
6407;DHT22;3236;51.022;6.818;2023-04-01T00:38:00;10.40;99.90
6407;DHT22;3236;51.022;6.818;2023-04-01T00:40:30;10.30;99.90
6407;DHT22;3236;51.022;6.818;2023-04-01T00:42:59;10.30;99.90
6407;DHT22;3236;51.022;6.818;2023-04-01T00:45:31;11.00;99.90
6407;DHT22;3236;51.022;6.818;2023-04-01T00:48:01;10.50;99.90
6407;DHT22;3236;51.022;6.818;2023-04-01T00:50:32;10.30;99.90
6407;DHT22;3236;51.022;6.818;2023-04-01T00:53:02;10.30;99.90
6407;DHT22;3236;51.022;6.818;2023-04-01T00:55:33;10.20;99.90
6407;DHT22;3236;51.022;6.818;2023-04-01T00:58:05;10.10;99.90
6407;DHT22;3236;51.022;6.818;2023-04-01T01:00:39;10.20;99.90
6407;DHT22;3236;51.022;6.818;2023-04-01T01:03:06;10.10;99.90
6407;DHT22;3236;51.022;6.818;2023-04-01T01:05:44;10.10;99.90
6407;DHT22;3236;51.022;6.818;2023-04-01T01:08:19;10.00;99.90
6407;DHT22;3236;51.022;6.818;2023-04-01T01:10:49;10.10;99.90
6407;DHT22;3236;51.022;6.818;2023-04-01T01:13:22;10.10;99.90
6407;DHT22;3236;51.022;6.818;2023-04-01T01:15:55;10.00;99.90
6407;DHT22;3236;51.022;6.818;2023-04-01T01:18:29;10.10;99.90
6407;DHT22;3236;51.022;6.818;2023-04-01T01:21:25;10.10;99.90
6407;DHT22;3236;51.022;6.818;2023-04-01T01:24:33;10.00;99.90
6407;DHT22;3236;51.022;6.818;2023-04-01T01:27:06;10.20;99.90
6407;DHT22;3236;51.022;6.818;2023-04-01T01:33:11;10.10;99.90
6407;DHT22;3236;51.022;6.818;2023-04-01T01:35:46;10.00;99.90
6407;DHT22;3236;51.022;6.818;2023-04-01T01:38:16;10.00;99.90
6407;DHT22;3236;51.022;6.818;2023-04-01T01:40:47;10.00;99.90
6407;DHT22;3236;51.022;6.818;2023-04-01T01:43:30;10.00;99.90
6407;DHT22;3236;51.022;6.818;2023-04-01T01:46:01;9.90;99.90
6407;DHT22;3236;51.022;6.818;2023-04-01T01:48:31;9.90;99.90
6407;DHT22;3236;51.022;6.818;2023-04-01T01:51:00;9.80;99.90
6407;DHT22;3236;51.022;6.818;2023-04-01T01:55:58;9.90;99.90
6407;DHT22;3236;51.022;6.818;2023-04-01T01:58:28;9.80;99.90
6407;DHT22;3236;51.022;6.818;2023-04-01T02:00:59;9.80;99.90
6407;DHT22;3236;51.022;6.818;2023-04-01T02:03:29;9.80;99.90
6407;DHT22;3236;51.022;6.818;2023-04-01T02:06:04;9.80;99.90
6407;DHT22;3236;51.022;6.818;2023-04-01T02:08:35;9.90;99.90
6407;DHT22;3236;51.022;6.818;2023-04-01T02:11:04;9.60;99.90
6407;DHT22;3236;51.022;6.818;2023-04-01T02:13:36;9.70;99.90
6407;DHT22;3236;51.022;6.818;2023-04-01T02:16:08;10.40;99.90
6407;DHT22;3236;51.022;6.818;2023-04-01T02:18:45;9.60;99.90
6407;DHT22;3236;51.022;6.818;2023-04-01T02:21:15;9.20;99.90
6407;DHT22;3236;51.022;6.818;2023-04-01T02:23:44;9.20;99.90
6407;DHT22;3236;51.022;6.818;2023-04-01T02:26:17;8.90;99.90
6407;DHT22;3236;51.022;6.818;2023-04-01T02:28:46;9.20;99.90
6407;DHT22;3236;51.022;6.818;2023-04-01T02:31:14;9.50;99.90
6407;DHT22;3236;51.022;6.818;2023-04-01T02:33:42;9.50;99.90
6407;DHT22;3236;51.022;6.818;2023-04-01T02:36:12;9.80;99.90
6407;DHT22;3236;51.022;6.818;2023-04-01T02:38:42;9.40;99.90
6407;DHT22;3236;51.022;6.818;2023-04-01T02:41:11;9.40;99.90
6407;DHT22;3236;51.022;6.818;2023-04-01T02:43:38;9.40;99.90
6407;DHT22;3236;51.022;6.818;2023-04-01T02:46:05;9.40;99.90
6407;DHT22;3236;51.022;6.818;2023-04-01T02:48:34;9.70;99.90
6407;DHT22;3236;51.022;6.818;2023-04-01T02:51:01;9.60;99.90
6407;DHT22;3236;51.022;6.818;2023-04-01T02:53:32;9.50;99.90
6407;DHT22;3236;51.022;6.818;2023-04-01T02:56:00;9.80;99.90
6407;DHT22;3236;51.022;6.818;2023-04-01T02:58:28;9.50;99.90
6407;DHT22;3236;51.022;6.818;2023-04-01T03:00:55;9.50;99.90
6407;DHT22;3236;51.022;6.818;2023-04-01T03:03:22;9.60;99.90
6407;DHT22;3236;51.022;6.818;2023-04-01T03:05:49;9.40;99.90
6407;DHT22;3236;51.022;6.818;2023-04-01T03:08:17;9.50;99.90
6407;DHT22;3236;51.022;6.818;2023-04-01T03:10:44;9.50;99.90
6407;DHT22;3236;51.022;6.818;2023-04-01T03:13:15;9.70;99.90
6407;DHT22;3236;51.022;6.818;2023-04-01T03:15:42;9.50;99.90
6407;DHT22;3236;51.022;6.818;2023-04-01T03:18:09;9.30;99.90
6407;DHT22;3236;51.022;6.818;2023-04-01T03:20:36;9.40;99.90
6407;DHT22;3236;51.022;6.818;2023-04-01T03:23:04;9.60;99.90
6407;DHT22;3236;51.022;6.818;2023-04-01T03:25:36;10.10;99.90
6407;DHT22;3236;51.022;6.818;2023-04-01T03:28:03;9.70;99.90
6407;DHT22;3236;51.022;6.818;2023-04-01T03:30:32;9.70;99.90
6407;DHT22;3236;51.022;6.818;2023-04-01T03:33:06;9.60;99.90
6407;DHT22;3236;51.022;6.818;2023-04-01T03:35:36;9.70;99.90
6407;DHT22;3236;51.022;6.818;2023-04-01T03:38:09;9.60;99.90
6407;DHT22;3236;51.022;6.818;2023-04-01T03:40:36;9.30;99.90
6407;DHT22;3236;51.022;6.818;2023-04-01T03:43:03;9.50;99.90
6407;DHT22;3236;51.022;6.818;2023-04-01T03:45:35;9.60;99.90
6407;DHT22;3236;51.022;6.818;2023-04-01T03:48:02;9.50;99.90
6407;DHT22;3236;51.022;6.818;2023-04-01T03:50:30;9.70;99.90
6407;DHT22;3236;51.022;6.818;2023-04-01T03:52:57;9.50;99.90
6407;DHT22;3236;51.022;6.818;2023-04-01T03:55:24;9.30;99.90
6407;DHT22;3236;51.022;6.818;2023-04-01T03:57:52;9.40;99.90
6407;DHT22;3236;51.022;6.818;2023-04-01T04:00:19;9.30;99.90
6407;DHT22;3236;51.022;6.818;2023-04-01T04:02:48;9.30;99.90
6407;DHT22;3236;51.022;6.818;2023-04-01T04:05:15;9.10;99.90
6407;DHT22;3236;51.022;6.818;2023-04-01T04:07:42;9.70;99.90
6407;DHT22;3236;51.022;6.818;2023-04-01T04:10:10;9.40;99.90
6407;DHT22;3236;51.022;6.818;2023-04-01T04:12:37;9.40;99.90
6407;DHT22;3236;51.022;6.818;2023-04-01T04:15:06;9.40;99.90
6407;DHT22;3236;51.022;6.818;2023-04-01T04:17:33;9.10;99.90
6407;DHT22;3236;51.022;6.818;2023-04-01T04:20:02;9.40;99.90
6407;DHT22;3236;51.022;6.818;2023-04-01T04:22:30;9.30;99.90
6407;DHT22;3236;51.022;6.818;2023-04-01T04:24:57;9.30;99.90
6407;DHT22;3236;51.022;6.818;2023-04-01T04:27:24;9.70;99.90
6407;DHT22;3236;51.022;6.818;2023-04-01T04:29:51;9.60;99.90
6407;DHT22;3236;51.022;6.818;2023-04-01T04:32:18;9.30;99.90
6407;DHT22;3236;51.022;6.818;2023-04-01T04:34:45;9.30;99.90
6407;DHT22;3236;51.022;6.818;2023-04-01T04:37:14;9.20;99.90
6407;DHT22;3236;51.022;6.818;2023-04-01T04:39:41;9.30;99.90
6407;DHT22;3236;51.022;6.818;2023-04-01T04:42:08;9.40;99.90
6407;DHT22;3236;51.022;6.818;2023-04-01T04:44:35;9.30;99.90
6407;DHT22;3236;51.022;6.818;2023-04-01T04:47:02;9.50;99.90
6407;DHT22;3236;51.022;6.818;2023-04-01T04:49:29;9.10;99.90
6407;DHT22;3236;51.022;6.818;2023-04-01T04:51:56;9.30;99.90
6407;DHT22;3236;51.022;6.818;2023-04-01T04:54:25;9.40;99.90
6407;DHT22;3236;51.022;6.818;2023-04-01T04:56:52;9.30;99.90
6407;DHT22;3236;51.022;6.818;2023-04-01T04:59:19;9.30;99.90
6407;DHT22;3236;51.022;6.818;2023-04-01T05:01:47;9.30;99.90
6407;DHT22;3236;51.022;6.818;2023-04-01T05:04:17;9.60;99.90
6407;DHT22;3236;51.022;6.818;2023-04-01T05:06:44;9.30;99.90
6407;DHT22;3236;51.022;6.818;2023-04-01T05:09:11;9.30;99.90
6407;DHT22;3236;51.022;6.818;2023-04-01T05:11:42;9.30;99.90
6407;DHT22;3236;51.022;6.818;2023-04-01T05:14:13;9.40;99.90
6407;DHT22;3236;51.022;6.818;2023-04-01T05:16:40;9.30;99.90
6407;DHT22;3236;51.022;6.818;2023-04-01T05:19:07;9.00;99.90
6407;DHT22;3236;51.022;6.818;2023-04-01T05:21:35;9.30;99.90
6407;DHT22;3236;51.022;6.818;2023-04-01T05:24:03;9.50;99.90
6407;DHT22;3236;51.022;6.818;2023-04-01T05:26:30;9.30;99.90
6407;DHT22;3236;51.022;6.818;2023-04-01T05:29:01;9.00;99.90
6407;DHT22;3236;51.022;6.818;2023-04-01T05:31:29;9.20;99.90
6407;DHT22;3236;51.022;6.818;2023-04-01T05:33:57;9.00;99.90
6407;DHT22;3236;51.022;6.818;2023-04-01T05:36:29;9.40;99.90
6407;DHT22;3236;51.022;6.818;2023-04-01T05:38:56;9.20;99.90
6407;DHT22;3236;51.022;6.818;2023-04-01T05:41:27;9.20;99.90
6407;DHT22;3236;51.022;6.818;2023-04-01T05:43:56;9.40;99.90
6407;DHT22;3236;51.022;6.818;2023-04-01T05:46:26;9.20;99.90
6407;DHT22;3236;51.022;6.818;2023-04-01T05:48:55;9.30;99.90
6407;DHT22;3236;51.022;6.818;2023-04-01T05:51:30;9.10;99.90
6407;DHT22;3236;51.022;6.818;2023-04-01T05:53:57;9.30;99.90
6407;DHT22;3236;51.022;6.818;2023-04-01T05:56:25;9.50;99.90
6407;DHT22;3236;51.022;6.818;2023-04-01T05:58:55;9.30;99.90
6407;DHT22;3236;51.022;6.818;2023-04-01T06:01:33;9.30;99.90
6407;DHT22;3236;51.022;6.818;2023-04-01T06:04:03;10.00;99.90
6407;DHT22;3236;51.022;6.818;2023-04-01T06:06:31;9.30;99.90
6407;DHT22;3236;51.022;6.818;2023-04-01T06:09:07;9.60;99.90
6407;DHT22;3236;51.022;6.818;2023-04-01T06:11:39;9.40;99.90
6407;DHT22;3236;51.022;6.818;2023-04-01T06:14:26;10.10;99.90
6407;DHT22;3236;51.022;6.818;2023-04-01T06:17:07;9.40;99.90
6407;DHT22;3236;51.022;6.818;2023-04-01T06:19:43;9.20;99.90
6407;DHT22;3236;51.022;6.818;2023-04-01T06:22:41;9.40;99.90
6407;DHT22;3236;51.022;6.818;2023-04-01T06:31:18;9.50;99.90
6407;DHT22;3236;51.022;6.818;2023-04-01T06:36:55;9.60;99.90
6407;DHT22;3236;51.022;6.818;2023-04-01T06:39:40;9.60;99.90
6407;DHT22;3236;51.022;6.818;2023-04-01T06:42:20;9.50;99.90
6407;DHT22;3236;51.022;6.818;2023-04-01T06:45:02;9.60;99.90
6407;DHT22;3236;51.022;6.818;2023-04-01T06:47:43;9.70;99.90
6407;DHT22;3236;51.022;6.818;2023-04-01T06:50:21;9.50;99.90
6407;DHT22;3236;51.022;6.818;2023-04-01T06:52:56;9.60;99.90
6407;DHT22;3236;51.022;6.818;2023-04-01T06:55:32;9.60;99.90
6407;DHT22;3236;51.022;6.818;2023-04-01T06:58:10;9.70;99.90
6407;DHT22;3236;51.022;6.818;2023-04-01T07:00:39;9.70;99.90
6407;DHT22;3236;51.022;6.818;2023-04-01T07:03:16;9.60;99.90
6407;DHT22;3236;51.022;6.818;2023-04-01T07:05:48;9.60;99.90
6407;DHT22;3236;51.022;6.818;2023-04-01T07:08:20;9.60;99.90
6407;DHT22;3236;51.022;6.818;2023-04-01T07:10:54;9.60;99.90
6407;DHT22;3236;51.022;6.818;2023-04-01T07:13:26;9.40;99.90
6407;DHT22;3236;51.022;6.818;2023-04-01T07:16:02;9.50;99.90
6407;DHT22;3236;51.022;6.818;2023-04-01T07:18:34;9.60;99.90
6407;DHT22;3236;51.022;6.818;2023-04-01T07:21:13;9.60;99.90
6407;DHT22;3236;51.022;6.818;2023-04-01T07:23:45;9.60;99.90
6407;DHT22;3236;51.022;6.818;2023-04-01T07:26:17;9.60;99.90
6407;DHT22;3236;51.022;6.818;2023-04-01T07:28:48;9.60;99.90
6407;DHT22;3236;51.022;6.818;2023-04-01T07:31:32;9.50;99.90
6407;DHT22;3236;51.022;6.818;2023-04-01T07:34:09;9.60;99.90
6407;DHT22;3236;51.022;6.818;2023-04-01T07:36:45;9.60;99.90
6407;DHT22;3236;51.022;6.818;2023-04-01T07:39:28;10.00;99.90
6407;DHT22;3236;51.022;6.818;2023-04-01T07:42:02;9.60;99.90
6407;DHT22;3236;51.022;6.818;2023-04-01T07:44:39;9.70;99.90
6407;DHT22;3236;51.022;6.818;2023-04-01T07:47:28;9.50;99.90
6407;DHT22;3236;51.022;6.818;2023-04-01T07:50:05;9.70;99.90
6407;DHT22;3236;51.022;6.818;2023-04-01T07:52:42;9.60;99.90
6407;DHT22;3236;51.022;6.818;2023-04-01T07:55:15;9.70;99.90
6407;DHT22;3236;51.022;6.818;2023-04-01T07:57:49;9.70;99.90
6407;DHT22;3236;51.022;6.818;2023-04-01T08:00:20;9.70;99.90
6407;DHT22;3236;51.022;6.818;2023-04-01T08:02:53;9.70;99.90
6407;DHT22;3236;51.022;6.818;2023-04-01T08:05:26;9.60;99.90
6407;DHT22;3236;51.022;6.818;2023-04-01T08:08:04;9.60;99.90
6407;DHT22;3236;51.022;6.818;2023-04-01T08:10:36;9.60;99.90
6407;DHT22;3236;51.022;6.818;2023-04-01T08:13:11;9.60;99.90
6407;DHT22;3236;51.022;6.818;2023-04-01T08:15:46;9.90;99.90
6407;DHT22;3236;51.022;6.818;2023-04-01T08:18:32;9.70;99.90
6407;DHT22;3236;51.022;6.818;2023-04-01T08:23:36;9.80;99.90
6407;DHT22;3236;51.022;6.818;2023-04-01T08:26:23;9.90;99.90
6407;DHT22;3236;51.022;6.818;2023-04-01T08:28:57;9.80;99.90
6407;DHT22;3236;51.022;6.818;2023-04-01T08:31:31;9.80;99.90
6407;DHT22;3236;51.022;6.818;2023-04-01T08:39:30;10.00;99.90
6407;DHT22;3236;51.022;6.818;2023-04-01T08:45:14;10.00;99.90
6407;DHT22;3236;51.022;6.818;2023-04-01T08:53:45;9.90;99.90
6407;DHT22;3236;51.022;6.818;2023-04-01T08:56:28;9.90;99.90
6407;DHT22;3236;51.022;6.818;2023-04-01T08:59:23;10.00;99.90
6407;DHT22;3236;51.022;6.818;2023-04-01T09:05:22;10.00;99.90
6407;DHT22;3236;51.022;6.818;2023-04-01T09:10:54;10.00;99.90
6407;DHT22;3236;51.022;6.818;2023-04-01T09:13:51;9.90;99.90
6407;DHT22;3236;51.022;6.818;2023-04-01T09:19:21;10.00;99.90
6407;DHT22;3236;51.022;6.818;2023-04-01T09:22:21;10.10;99.90
6407;DHT22;3236;51.022;6.818;2023-04-01T09:25:27;10.20;99.90
6407;DHT22;3236;51.022;6.818;2023-04-01T09:28:10;10.20;99.90
6407;DHT22;3236;51.022;6.818;2023-04-01T09:31:15;10.20;99.90
6407;DHT22;3236;51.022;6.818;2023-04-01T09:37:09;10.20;99.90
6407;DHT22;3236;51.022;6.818;2023-04-01T09:39:45;10.20;99.90
6407;DHT22;3236;51.022;6.818;2023-04-01T09:47:56;10.20;99.90
6407;DHT22;3236;51.022;6.818;2023-04-01T09:50:35;10.30;99.90
6407;DHT22;3236;51.022;6.818;2023-04-01T09:53:28;10.30;99.90
6407;DHT22;3236;51.022;6.818;2023-04-01T09:56:36;10.20;99.90
6407;DHT22;3236;51.022;6.818;2023-04-01T09:59:43;10.20;99.90
6407;DHT22;3236;51.022;6.818;2023-04-01T10:02:53;10.10;99.90
6407;DHT22;3236;51.022;6.818;2023-04-01T10:05:57;10.10;99.90
6407;DHT22;3236;51.022;6.818;2023-04-01T10:15:22;10.00;99.90
6407;DHT22;3236;51.022;6.818;2023-04-01T10:21:29;10.40;99.90
6407;DHT22;3236;51.022;6.818;2023-04-01T10:24:21;10.20;99.90
6407;DHT22;3236;51.022;6.818;2023-04-01T10:27:16;10.00;99.90
6407;DHT22;3236;51.022;6.818;2023-04-01T10:30:23;9.20;99.90
6407;DHT22;3236;51.022;6.818;2023-04-01T10:33:22;10.30;99.90
6407;DHT22;3236;51.022;6.818;2023-04-01T10:36:42;10.30;99.90
6407;DHT22;3236;51.022;6.818;2023-04-01T10:39:54;8.80;99.90
6407;DHT22;3236;51.022;6.818;2023-04-01T10:43:15;10.30;99.90
6407;DHT22;3236;51.022;6.818;2023-04-01T10:52:15;10.30;99.90
6407;DHT22;3236;51.022;6.818;2023-04-01T10:54:50;10.20;99.90
6407;DHT22;3236;51.022;6.818;2023-04-01T11:13:20;10.70;99.90
6407;DHT22;3236;51.022;6.818;2023-04-01T11:16:21;11.40;99.90
6407;DHT22;3236;51.022;6.818;2023-04-01T11:19:13;10.60;99.90
6407;DHT22;3236;51.022;6.818;2023-04-01T11:22:15;10.80;99.90
6407;DHT22;3236;51.022;6.818;2023-04-01T11:25:09;10.70;99.90
6407;DHT22;3236;51.022;6.818;2023-04-01T11:27:54;10.90;99.90
6407;DHT22;3236;51.022;6.818;2023-04-01T11:30:39;10.90;99.90
6407;DHT22;3236;51.022;6.818;2023-04-01T11:33:17;11.00;99.90
6407;DHT22;3236;51.022;6.818;2023-04-01T11:35:57;11.10;99.90
6407;DHT22;3236;51.022;6.818;2023-04-01T11:38:42;11.70;99.90
6407;DHT22;3236;51.022;6.818;2023-04-01T11:41:24;11.70;99.90
6407;DHT22;3236;51.022;6.818;2023-04-01T11:44:09;11.30;99.90
6407;DHT22;3236;51.022;6.818;2023-04-01T11:49:56;11.70;99.90
6407;DHT22;3236;51.022;6.818;2023-04-01T11:52:43;11.60;99.90
6407;DHT22;3236;51.022;6.818;2023-04-01T11:55:25;11.80;99.90
6407;DHT22;3236;51.022;6.818;2023-04-01T11:58:32;12.00;99.90
6407;DHT22;3236;51.022;6.818;2023-04-01T12:10:37;12.40;99.90
6407;DHT22;3236;51.022;6.818;2023-04-01T12:13:18;12.00;99.90
6407;DHT22;3236;51.022;6.818;2023-04-01T12:15:55;11.80;99.90
6407;DHT22;3236;51.022;6.818;2023-04-01T12:18:33;12.00;99.90
6407;DHT22;3236;51.022;6.818;2023-04-01T12:21:17;11.80;99.90
6407;DHT22;3236;51.022;6.818;2023-04-01T12:24:20;11.90;99.90
6407;DHT22;3236;51.022;6.818;2023-04-01T12:27:11;11.90;99.90
6407;DHT22;3236;51.022;6.818;2023-04-01T12:30:02;12.30;99.90
6407;DHT22;3236;51.022;6.818;2023-04-01T12:32:41;12.00;99.90
6407;DHT22;3236;51.022;6.818;2023-04-01T12:35:24;12.20;99.90
6407;DHT22;3236;51.022;6.818;2023-04-01T12:38:04;12.00;99.90
6407;DHT22;3236;51.022;6.818;2023-04-01T12:40:47;12.10;99.90
6407;DHT22;3236;51.022;6.818;2023-04-01T12:43:49;12.10;99.90
6407;DHT22;3236;51.022;6.818;2023-04-01T12:46:25;12.40;99.90
6407;DHT22;3236;51.022;6.818;2023-04-01T12:49:10;12.10;99.90
6407;DHT22;3236;51.022;6.818;2023-04-01T12:51:53;12.30;99.90
6407;DHT22;3236;51.022;6.818;2023-04-01T13:01:16;11.70;99.90
6407;DHT22;3236;51.022;6.818;2023-04-01T13:04:28;11.70;99.90
6407;DHT22;3236;51.022;6.818;2023-04-01T13:07:23;11.90;99.90
6407;DHT22;3236;51.022;6.818;2023-04-01T13:10:00;11.80;99.90
6407;DHT22;3236;51.022;6.818;2023-04-01T13:12:57;11.80;99.90
6407;DHT22;3236;51.022;6.818;2023-04-01T13:15:37;11.70;99.90
6407;DHT22;3236;51.022;6.818;2023-04-01T13:18:20;11.80;99.90
6407;DHT22;3236;51.022;6.818;2023-04-01T13:20:57;11.40;99.90
6407;DHT22;3236;51.022;6.818;2023-04-01T13:23:36;11.60;99.90
6407;DHT22;3236;51.022;6.818;2023-04-01T13:26:17;11.20;99.90
6407;DHT22;3236;51.022;6.818;2023-04-01T13:28:50;11.20;99.90
6407;DHT22;3236;51.022;6.818;2023-04-01T13:31:37;11.00;99.90
6407;DHT22;3236;51.022;6.818;2023-04-01T13:34:20;10.90;99.90
6407;DHT22;3236;51.022;6.818;2023-04-01T13:36:59;10.90;99.90
6407;DHT22;3236;51.022;6.818;2023-04-01T13:39:54;10.90;99.90
6407;DHT22;3236;51.022;6.818;2023-04-01T13:42:29;10.80;99.90
6407;DHT22;3236;51.022;6.818;2023-04-01T13:45:01;10.90;99.90
6407;DHT22;3236;51.022;6.818;2023-04-01T13:51:10;10.90;99.90
6407;DHT22;3236;51.022;6.818;2023-04-01T13:54:07;10.80;99.90
6407;DHT22;3236;51.022;6.818;2023-04-01T13:56:49;10.90;99.90
6407;DHT22;3236;51.022;6.818;2023-04-01T14:00:11;10.80;99.90
6407;DHT22;3236;51.022;6.818;2023-04-01T14:03:24;10.70;99.90
6407;DHT22;3236;51.022;6.818;2023-04-01T14:08:47;10.80;99.90
6407;DHT22;3236;51.022;6.818;2023-04-01T14:11:27;10.00;99.90
6407;DHT22;3236;51.022;6.818;2023-04-01T14:14:08;10.90;99.90
6407;DHT22;3236;51.022;6.818;2023-04-01T14:17:02;10.90;99.90
6407;DHT22;3236;51.022;6.818;2023-04-01T14:20:00;10.90;99.90
6407;DHT22;3236;51.022;6.818;2023-04-01T14:22:35;11.00;99.90
6407;DHT22;3236;51.022;6.818;2023-04-01T14:25:29;11.00;99.90
6407;DHT22;3236;51.022;6.818;2023-04-01T14:28:08;11.00;99.90
6407;DHT22;3236;51.022;6.818;2023-04-01T14:30:50;11.30;99.90
6407;DHT22;3236;51.022;6.818;2023-04-01T14:33:38;10.80;99.90
6407;DHT22;3236;51.022;6.818;2023-04-01T14:36:33;10.70;99.90
6407;DHT22;3236;51.022;6.818;2023-04-01T14:39:19;10.60;99.90
6407;DHT22;3236;51.022;6.818;2023-04-01T14:42:03;10.80;99.90
6407;DHT22;3236;51.022;6.818;2023-04-01T14:47:34;10.70;99.90
6407;DHT22;3236;51.022;6.818;2023-04-01T14:50:09;10.80;99.90
6407;DHT22;3236;51.022;6.818;2023-04-01T14:52:44;10.70;99.90
6407;DHT22;3236;51.022;6.818;2023-04-01T14:55:31;10.80;99.90
6407;DHT22;3236;51.022;6.818;2023-04-01T14:58:13;10.80;99.90
6407;DHT22;3236;51.022;6.818;2023-04-01T15:01:01;10.70;99.90
6407;DHT22;3236;51.022;6.818;2023-04-01T15:03:40;10.80;99.90
6407;DHT22;3236;51.022;6.818;2023-04-01T15:06:41;10.90;99.90
6407;DHT22;3236;51.022;6.818;2023-04-01T15:09:17;11.00;99.90
6407;DHT22;3236;51.022;6.818;2023-04-01T15:12:05;10.90;99.90
6407;DHT22;3236;51.022;6.818;2023-04-01T15:14:46;10.90;99.90
6407;DHT22;3236;51.022;6.818;2023-04-01T15:20:22;10.70;99.90
6407;DHT22;3236;51.022;6.818;2023-04-01T15:23:11;10.70;99.90
6407;DHT22;3236;51.022;6.818;2023-04-01T15:26:14;10.70;99.90
6407;DHT22;3236;51.022;6.818;2023-04-01T15:29:11;10.70;99.90
6407;DHT22;3236;51.022;6.818;2023-04-01T15:31:50;10.70;99.90
6407;DHT22;3236;51.022;6.818;2023-04-01T15:34:32;10.60;99.90
6407;DHT22;3236;51.022;6.818;2023-04-01T15:37:07;10.70;99.90
6407;DHT22;3236;51.022;6.818;2023-04-01T15:39:54;10.70;99.90
6407;DHT22;3236;51.022;6.818;2023-04-01T15:42:31;10.70;99.90
6407;DHT22;3236;51.022;6.818;2023-04-01T15:45:30;10.50;99.90
6407;DHT22;3236;51.022;6.818;2023-04-01T15:48:32;10.60;99.90
6407;DHT22;3236;51.022;6.818;2023-04-01T15:51:24;10.70;99.90
6407;DHT22;3236;51.022;6.818;2023-04-01T15:54:22;10.60;99.90
6407;DHT22;3236;51.022;6.818;2023-04-01T15:57:14;10.60;99.90
6407;DHT22;3236;51.022;6.818;2023-04-01T16:00:06;10.50;99.90
6407;DHT22;3236;51.022;6.818;2023-04-01T16:05:25;10.60;99.90
6407;DHT22;3236;51.022;6.818;2023-04-01T16:10:57;10.60;99.90
6407;DHT22;3236;51.022;6.818;2023-04-01T16:13:37;10.80;99.90
6407;DHT22;3236;51.022;6.818;2023-04-01T16:16:18;10.60;99.90
6407;DHT22;3236;51.022;6.818;2023-04-01T16:21:57;10.50;99.90
6407;DHT22;3236;51.022;6.818;2023-04-01T16:24:34;10.50;99.90
6407;DHT22;3236;51.022;6.818;2023-04-01T16:32:10;10.40;99.90
6407;DHT22;3236;51.022;6.818;2023-04-01T16:34:45;10.50;99.90
6407;DHT22;3236;51.022;6.818;2023-04-01T16:37:19;10.30;99.90
6407;DHT22;3236;51.022;6.818;2023-04-01T16:39:53;10.20;99.90
6407;DHT22;3236;51.022;6.818;2023-04-01T16:45:17;10.20;99.90
6407;DHT22;3236;51.022;6.818;2023-04-01T16:50:19;10.20;99.90
6407;DHT22;3236;51.022;6.818;2023-04-01T16:53:08;10.10;99.90
6407;DHT22;3236;51.022;6.818;2023-04-01T17:00:48;10.10;99.90
6407;DHT22;3236;51.022;6.818;2023-04-01T17:06:03;10.20;99.90
6407;DHT22;3236;51.022;6.818;2023-04-01T17:13:44;10.10;99.90
6407;DHT22;3236;51.022;6.818;2023-04-01T17:16:40;10.10;99.90
6407;DHT22;3236;51.022;6.818;2023-04-01T17:19:23;9.90;99.90
6407;DHT22;3236;51.022;6.818;2023-04-01T17:22:00;10.10;99.90
6407;DHT22;3236;51.022;6.818;2023-04-01T17:24:38;10.00;99.90
6407;DHT22;3236;51.022;6.818;2023-04-01T17:27:20;10.00;99.90
6407;DHT22;3236;51.022;6.818;2023-04-01T17:30:08;10.00;99.90
6407;DHT22;3236;51.022;6.818;2023-04-01T17:32:51;10.00;99.90
6407;DHT22;3236;51.022;6.818;2023-04-01T17:35:26;10.00;99.90
6407;DHT22;3236;51.022;6.818;2023-04-01T17:38:10;9.90;99.90
6407;DHT22;3236;51.022;6.818;2023-04-01T17:40:50;9.90;99.90
6407;DHT22;3236;51.022;6.818;2023-04-01T17:43:40;9.90;99.90
6407;DHT22;3236;51.022;6.818;2023-04-01T17:54:39;9.60;99.90
6407;DHT22;3236;51.022;6.818;2023-04-01T18:03:11;9.80;99.90
6407;DHT22;3236;51.022;6.818;2023-04-01T18:08:26;9.70;99.90
6407;DHT22;3236;51.022;6.818;2023-04-01T18:11:25;9.60;99.90
6407;DHT22;3236;51.022;6.818;2023-04-01T18:16:55;9.60;99.90
6407;DHT22;3236;51.022;6.818;2023-04-01T18:27:22;9.50;99.90
6407;DHT22;3236;51.022;6.818;2023-04-01T18:30:06;9.50;99.90
6407;DHT22;3236;51.022;6.818;2023-04-01T18:35:22;9.50;99.90
6407;DHT22;3236;51.022;6.818;2023-04-01T18:37:57;9.50;99.90
6407;DHT22;3236;51.022;6.818;2023-04-01T18:43:11;9.40;99.90
6407;DHT22;3236;51.022;6.818;2023-04-01T18:45:43;9.40;99.90
6407;DHT22;3236;51.022;6.818;2023-04-01T18:48:21;9.40;99.90
6407;DHT22;3236;51.022;6.818;2023-04-01T18:50:57;9.40;99.90
6407;DHT22;3236;51.022;6.818;2023-04-01T18:53:29;9.40;99.90
6407;DHT22;3236;51.022;6.818;2023-04-01T18:56:01;9.40;99.90
6407;DHT22;3236;51.022;6.818;2023-04-01T19:01:28;9.40;99.90
6407;DHT22;3236;51.022;6.818;2023-04-01T19:04:16;9.40;99.90
6407;DHT22;3236;51.022;6.818;2023-04-01T19:09:27;9.30;99.90
6407;DHT22;3236;51.022;6.818;2023-04-01T19:12:31;9.30;99.90
6407;DHT22;3236;51.022;6.818;2023-04-01T19:17:51;9.30;99.90
6407;DHT22;3236;51.022;6.818;2023-04-01T19:20:26;9.30;99.90
6407;DHT22;3236;51.022;6.818;2023-04-01T19:23:26;9.30;99.90
6407;DHT22;3236;51.022;6.818;2023-04-01T19:39:10;9.20;99.90
6407;DHT22;3236;51.022;6.818;2023-04-01T19:41:54;9.20;99.90
6407;DHT22;3236;51.022;6.818;2023-04-01T19:44:40;9.20;99.90
6407;DHT22;3236;51.022;6.818;2023-04-01T19:52:36;10.30;99.90
6407;DHT22;3236;51.022;6.818;2023-04-01T20:03:00;9.20;99.90
6407;DHT22;3236;51.022;6.818;2023-04-01T20:05:40;9.00;99.90
6407;DHT22;3236;51.022;6.818;2023-04-01T20:08:15;9.20;99.90
6407;DHT22;3236;51.022;6.818;2023-04-01T20:10:52;9.10;99.90
6407;DHT22;3236;51.022;6.818;2023-04-01T20:13:30;9.10;99.90
6407;DHT22;3236;51.022;6.818;2023-04-01T20:16:04;9.00;99.90
6407;DHT22;3236;51.022;6.818;2023-04-01T20:18:44;9.10;99.90
6407;DHT22;3236;51.022;6.818;2023-04-01T20:21:33;9.20;99.90
6407;DHT22;3236;51.022;6.818;2023-04-01T20:24:05;9.10;99.90
6407;DHT22;3236;51.022;6.818;2023-04-01T20:26:38;9.10;99.90
6407;DHT22;3236;51.022;6.818;2023-04-01T20:29:17;9.10;99.90
6407;DHT22;3236;51.022;6.818;2023-04-01T20:31:56;9.00;99.90
6407;DHT22;3236;51.022;6.818;2023-04-01T20:37:46;8.90;99.90
6407;DHT22;3236;51.022;6.818;2023-04-01T20:40:32;9.10;99.90
6407;DHT22;3236;51.022;6.818;2023-04-01T20:43:33;9.10;99.90
6407;DHT22;3236;51.022;6.818;2023-04-01T20:46:15;9.10;99.90
6407;DHT22;3236;51.022;6.818;2023-04-01T20:51:59;8.70;99.90
6407;DHT22;3236;51.022;6.818;2023-04-01T20:54:58;8.90;99.90
6407;DHT22;3236;51.022;6.818;2023-04-01T20:57:36;9.20;99.90
6407;DHT22;3236;51.022;6.818;2023-04-01T21:00:31;9.10;99.90